Time;durP1;ratioP1;P1;durP2;ratioP2;P2;SDS_P1;SDS_P2;PMS_P1;PMS_P2;Temp;Humidity;BMP_temperature;BMP_pressure;BME280_temperature;BME280_humidity;BME280_pressure;Samples;Min_cycle;Max_cycle;Signal;HPM_P1;HPM_P2
2021/09/26 00:01:58;;;;;;;17.63;12.20;;;15.10;99.90;;;;;;5033888;28;20033;-80
2021/09/26 00:04:24;;;;;;;14.48;11.48;;;15.10;99.90;;;;;;5020199;28;20061;-80
2021/09/26 00:06:51;;;;;;;13.50;9.80;;;15.10;99.90;;;;;;5032049;28;20381;-79
2021/09/26 00:09:17;;;;;;;17.42;14.00;;;15.10;99.90;;;;;;5015465;28;20112;-78
2021/09/26 00:11:44;;;;;;;16.75;12.80;;;15.10;99.90;;;;;;5031780;28;20038;-78
2021/09/26 00:14:10;;;;;;;16.80;12.27;;;15.10;99.90;;;;;;5016781;28;20045;-78
2021/09/26 00:16:37;;;;;;;19.05;14.48;;;15.10;99.90;;;;;;5019711;28;20033;-79
2021/09/26 00:19:04;;;;;;;15.80;12.80;;;15.10;99.90;;;;;;5019435;28;20063;-79
2021/09/26 00:21:31;;;;;;;18.08;12.80;;;15.10;99.90;;;;;;5038291;28;20045;-78
2021/09/26 00:23:57;;;;;;;16.90;12.32;;;15.10;99.90;;;;;;5040456;28;20033;-79
2021/09/26 00:26:24;;;;;;;16.45;12.20;;;15.10;99.90;;;;;;5035256;28;20408;-78
2021/09/26 00:28:50;;;;;;;17.02;11.75;;;15.00;99.90;;;;;;5035668;28;20029;-79
2021/09/26 00:31:17;;;;;;;13.55;11.00;;;15.00;99.90;;;;;;5019258;28;20056;-79
2021/09/26 00:33:43;;;;;;;12.45;10.20;;;15.00;99.90;;;;;;5030949;28;20040;-80
2021/09/26 00:36:10;;;;;;;16.38;10.98;;;15.00;99.90;;;;;;5017261;28;20040;-79
2021/09/26 00:38:36;;;;;;;12.55;8.95;;;15.00;99.90;;;;;;5035047;28;20036;-81
2021/09/26 00:41:03;;;;;;;12.75;10.80;;;14.90;99.90;;;;;;5034229;28;20048;-80
2021/09/26 00:43:30;;;;;;;15.45;11.30;;;14.90;99.90;;;;;;5038062;28;20042;-80
2021/09/26 00:45:57;;;;;;;13.15;10.45;;;14.90;99.90;;;;;;5035328;28;20052;-80
2021/09/26 00:48:24;;;;;;;12.95;9.73;;;14.90;99.90;;;;;;5003141;28;20061;-81
2021/09/26 00:50:50;;;;;;;15.93;10.85;;;14.80;99.90;;;;;;5030596;28;20053;-80
2021/09/26 00:53:20;;;;;;;13.65;10.10;;;14.80;99.90;;;;;;5034277;28;20037;-81
2021/09/26 00:55:47;;;;;;;13.70;10.75;;;14.80;99.90;;;;;;5021734;28;20484;-80
2021/09/26 00:58:15;;;;;;;15.75;11.10;;;14.70;99.90;;;;;;5023135;28;20040;-81
2021/09/26 01:00:41;;;;;;;14.60;11.38;;;14.70;99.90;;;;;;5047864;28;20048;-80
2021/09/26 01:03:08;;;;;;;13.57;11.52;;;14.70;99.90;;;;;;5032024;28;20041;-80
2021/09/26 01:05:34;;;;;;;16.55;11.57;;;14.70;99.90;;;;;;5032615;28;20038;-79
2021/09/26 01:08:04;;;;;;;13.50;10.52;;;14.70;99.90;;;;;;5012527;28;20076;-80
2021/09/26 01:10:40;;;;;;;11.52;9.45;;;14.60;99.90;;;;;;5034559;28;20048;-79
2021/09/26 01:13:32;;;;;;;13.60;10.35;;;14.60;99.90;;;;;;5036074;28;20033;-80
2021/09/26 01:16:12;;;;;;;13.05;11.00;;;14.60;99.90;;;;;;5033842;28;20492;-80
2021/09/26 01:18:57;;;;;;;15.50;11.35;;;14.50;99.90;;;;;;5029680;28;20503;-80
2021/09/26 01:21:46;;;;;;;14.05;11.40;;;14.50;99.90;;;;;;5037622;28;20037;-79
2021/09/26 01:24:19;;;;;;;13.45;10.75;;;14.50;99.90;;;;;;5032628;28;20043;-79
2021/09/26 01:27:24;;;;;;;15.02;10.40;;;14.50;99.90;;;;;;5034906;28;20036;-80
2021/09/26 01:29:56;;;;;;;13.35;10.35;;;14.40;99.90;;;;;;5018922;28;20060;-79
2021/09/26 01:32:24;;;;;;;14.30;10.73;;;14.40;99.90;;;;;;5033934;28;20037;-80
2021/09/26 01:34:55;;;;;;;13.30;10.65;;;14.40;99.90;;;;;;5019831;28;20384;-80
2021/09/26 01:37:48;;;;;;;16.02;10.93;;;14.30;99.90;;;;;;5013028;28;20420;-79
2021/09/26 01:40:27;;;;;;;;;;;14.30;99.90;;;;;;5026339;28;20056;-80
2021/09/26 01:42:59;;;;;;;10.48;8.43;;;14.20;99.90;;;;;;5032409;28;19924;-80
2021/09/26 01:45:45;;;;;;;11.80;9.23;;;14.20;99.90;;;;;;5033936;28;20037;-80
2021/09/26 01:48:22;;;;;;;14.30;10.57;;;14.20;99.90;;;;;;5029813;28;20040;-80
2021/09/26 01:50:51;;;;;;;12.80;9.48;;;14.20;99.90;;;;;;5030106;28;20068;-79
2021/09/26 01:53:20;;;;;;;12.60;9.80;;;14.10;99.90;;;;;;5033859;28;20036;-80
2021/09/26 01:55:50;;;;;;;14.23;10.23;;;14.10;99.90;;;;;;5033189;28;20498;-80
2021/09/26 01:58:18;;;;;;;13.60;10.50;;;14.10;99.90;;;;;;5029632;28;20033;-80
2021/09/26 02:00:46;;;;;;;14.40;10.35;;;14.00;99.90;;;;;;5013713;28;20041;-80
2021/09/26 02:03:22;;;;;;;12.75;9.77;;;14.00;99.90;;;;;;5032448;28;20060;-80
2021/09/26 02:05:49;;;;;;;13.15;9.77;;;14.00;99.90;;;;;;5031667;28;20041;-80
2021/09/26 02:08:16;;;;;;;11.73;9.95;;;14.00;99.90;;;;;;5009776;28;20045;-80
2021/09/26 02:10:44;;;;;;;12.68;10.70;;;14.00;99.90;;;;;;5028469;28;20056;-80
2021/09/26 02:13:12;;;;;;;13.70;10.10;;;13.90;99.90;;;;;;5011969;28;20507;-80
2021/09/26 02:15:42;;;;;;;13.35;10.40;;;13.90;99.90;;;;;;5026161;28;20033;-80
2021/09/26 02:18:09;;;;;;;15.20;11.23;;;13.90;99.90;;;;;;5025222;28;20040;-80
2021/09/26 02:20:37;;;;;;;13.88;10.70;;;13.90;99.90;;;;;;5015058;28;20056;-80
2021/09/26 02:23:05;;;;;;;12.60;9.88;;;13.90;99.90;;;;;;5000177;28;20049;-80
2021/09/26 02:25:33;;;;;;;12.48;9.10;;;13.90;99.90;;;;;;5024880;28;20049;-79
2021/09/26 02:28:00;;;;;;;13.45;10.48;;;13.90;99.90;;;;;;5026190;28;20042;-80
2021/09/26 02:30:27;;;;;;;13.00;10.30;;;13.90;99.90;;;;;;5027874;28;20052;-80
2021/09/26 02:32:54;;;;;;;14.38;10.65;;;13.90;99.90;;;;;;5032189;28;20051;-80
2021/09/26 02:35:21;;;;;;;13.82;10.18;;;13.90;99.90;;;;;;5018656;28;20038;-80
2021/09/26 02:37:47;;;;;;;14.30;10.45;;;13.90;99.90;;;;;;5029482;28;20029;-80
2021/09/26 02:40:17;;;;;;;16.60;12.18;;;13.90;99.90;;;;;;5033292;28;20526;-80
2021/09/26 02:43:05;;;;;;;12.73;10.13;;;13.90;99.90;;;;;;5031408;28;20400;-80
2021/09/26 02:45:37;;;;;;;13.00;10.07;;;13.80;99.90;;;;;;5029095;28;20041;-80
2021/09/26 02:48:09;;;;;;;10.57;9.45;;;13.90;99.90;;;;;;5014854;28;20151;-80
2021/09/26 02:50:36;;;;;;;;;;;13.90;99.90;;;;;;5029405;28;20048;-80
2021/09/26 02:53:04;;;;;;;13.98;9.40;;;13.90;99.90;;;;;;5017627;28;19920;-80
2021/09/26 02:55:32;;;;;;;15.23;10.00;;;13.80;99.90;;;;;;5028302;28;20044;-80
2021/09/26 02:57:59;;;;;;;13.27;10.70;;;13.80;99.90;;;;;;5028514;28;20484;-79
2021/09/26 03:00:34;;;;;;;12.75;10.20;;;13.80;99.90;;;;;;5026568;28;20034;-80
2021/09/26 03:03:10;;;;;;;12.52;10.00;;;13.70;99.90;;;;;;5027404;28;20033;-80
2021/09/26 03:05:38;;;;;;;11.85;9.48;;;13.80;99.90;;;;;;5021351;28;20420;-81
2021/09/26 03:08:05;;;;;;;12.80;10.40;;;13.80;99.90;;;;;;5032565;28;20063;-80
2021/09/26 03:10:32;;;;;;;15.48;10.55;;;13.80;99.90;;;;;;5030593;28;20045;-79
2021/09/26 03:12:58;;;;;;;15.07;11.45;;;13.80;99.90;;;;;;5029611;28;20048;-79
2021/09/26 03:15:25;;;;;;;16.15;12.35;;;13.80;99.90;;;;;;5018852;28;20041;-80
2021/09/26 03:17:51;;;;;;;13.20;9.95;;;13.80;99.90;;;;;;5028499;28;20045;-79
2021/09/26 03:20:18;;;;;;;13.30;9.70;;;13.80;99.90;;;;;;5033335;28;20029;-79
2021/09/26 03:22:45;;;;;;;16.75;11.05;;;13.80;99.90;;;;;;4982140;28;20052;-80
2021/09/26 03:25:11;;;;;;;12.65;10.50;;;13.70;99.90;;;;;;5013629;28;20056;-80
2021/09/26 03:27:38;;;;;;;14.77;9.70;;;13.80;99.90;;;;;;5016500;28;20044;-80
2021/09/26 03:30:05;;;;;;;14.95;10.63;;;13.80;99.90;;;;;;5030723;28;20521;-80
2021/09/26 03:32:32;;;;;;;12.00;10.13;;;13.80;99.90;;;;;;5013098;28;20056;-80
2021/09/26 03:34:58;;;;;;;15.25;11.40;;;13.80;99.90;;;;;;5031150;28;20053;-78
2021/09/26 03:37:25;;;;;;;12.82;10.48;;;13.80;99.90;;;;;;5008841;28;20877;-80
2021/09/26 03:39:52;;;;;;;14.77;10.93;;;13.80;99.90;;;;;;5029714;28;20049;-80
2021/09/26 03:42:19;;;;;;;14.50;10.57;;;13.90;99.90;;;;;;5024650;28;20041;-80
2021/09/26 03:44:48;;;;;;;14.05;9.90;;;13.90;99.90;;;;;;5010639;28;20052;-81
2021/09/26 03:47:14;;;;;;;14.27;11.25;;;13.90;99.90;;;;;;5024088;28;20041;-80
2021/09/26 03:49:41;;;;;;;13.77;10.18;;;13.90;99.90;;;;;;5032982;28;20044;-80
2021/09/26 03:52:08;;;;;;;13.35;10.18;;;13.90;99.90;;;;;;5014200;28;20048;-80
2021/09/26 03:54:34;;;;;;;14.02;10.82;;;13.90;99.90;;;;;;5025335;28;20048;-80
2021/09/26 03:57:01;;;;;;;14.70;10.82;;;13.90;99.90;;;;;;5034543;28;20860;-80
2021/09/26 03:59:27;;;;;;;12.35;8.82;;;13.90;99.90;;;;;;5017465;28;20037;-79
2021/09/26 04:01:54;;;;;;;15.55;10.70;;;14.00;99.90;;;;;;5026735;28;20045;-80
2021/09/26 04:04:20;;;;;;;12.63;10.40;;;14.00;99.90;;;;;;5027541;28;20037;-80
2021/09/26 04:06:46;;;;;;;16.42;11.38;;;14.10;99.90;;;;;;5011873;28;20556;-80
2021/09/26 04:09:13;;;;;;;14.38;11.13;;;14.10;99.90;;;;;;5011386;28;20045;-80
2021/09/26 04:11:40;;;;;;;14.75;11.23;;;14.20;99.90;;;;;;5018120;28;20049;-80
2021/09/26 04:14:06;;;;;;;14.07;11.27;;;14.20;99.90;;;;;;5026904;28;20037;-80
2021/09/26 04:16:33;;;;;;;14.98;11.85;;;14.20;99.90;;;;;;5029725;28;20035;-80
2021/09/26 04:18:59;;;;;;;13.60;10.75;;;14.20;99.90;;;;;;5028120;28;20052;-80
2021/09/26 04:21:25;;;;;;;14.57;11.10;;;14.20;99.90;;;;;;5025852;28;20038;-80
2021/09/26 04:23:52;;;;;;;13.10;10.77;;;14.20;99.90;;;;;;5024851;28;20392;-80
2021/09/26 04:26:19;;;;;;;13.77;11.35;;;14.20;99.90;;;;;;5029919;28;20041;-80
2021/09/26 04:28:47;;;;;;;13.70;11.60;;;14.10;99.90;;;;;;5026340;28;20044;-80
2021/09/26 04:31:13;;;;;;;12.57;10.70;;;14.20;99.90;;;;;;5045327;28;20400;-80
2021/09/26 04:33:40;;;;;;;14.93;11.13;;;14.20;99.90;;;;;;5028344;28;20522;-79
2021/09/26 04:36:06;;;;;;;13.80;11.13;;;14.20;99.90;;;;;;5028130;28;20045;-80
2021/09/26 04:38:33;;;;;;;13.30;10.38;;;14.20;99.90;;;;;;5026337;28;20037;-80
2021/09/26 04:41:00;;;;;;;14.25;11.05;;;14.30;99.90;;;;;;5030701;28;20491;-80
2021/09/26 04:43:26;;;;;;;16.23;11.48;;;14.30;99.90;;;;;;5032046;28;20508;-80
2021/09/26 04:45:53;;;;;;;15.63;11.60;;;14.30;99.90;;;;;;5028994;28;20037;-80
2021/09/26 04:48:19;;;;;;;16.10;11.18;;;14.30;99.90;;;;;;5027932;28;20033;-79
2021/09/26 04:50:46;;;;;;;14.50;11.20;;;14.30;99.90;;;;;;5029970;28;20539;-80
2021/09/26 04:53:13;;;;;;;14.43;11.13;;;14.30;99.90;;;;;;5031733;28;20037;-79
2021/09/26 04:55:39;;;;;;;16.77;11.48;;;14.40;99.90;;;;;;5030097;28;20491;-79
2021/09/26 04:58:06;;;;;;;16.67;12.02;;;14.40;99.90;;;;;;5010648;28;20045;-79
2021/09/26 05:00:33;;;;;;;19.88;13.18;;;14.40;99.90;;;;;;5014452;28;20034;-79
2021/09/26 05:03:00;;;;;;;15.10;12.15;;;14.50;99.90;;;;;;5012298;28;20497;-79
2021/09/26 05:05:26;;;;;;;17.40;13.43;;;14.50;99.90;;;;;;5018578;28;20516;-79
2021/09/26 05:07:53;;;;;;;17.67;12.45;;;14.60;99.90;;;;;;5010848;28;20048;-79
2021/09/26 05:10:19;;;;;;;17.40;12.75;;;14.60;99.90;;;;;;5013654;28;20045;-79
2021/09/26 05:12:46;;;;;;;17.13;13.25;;;14.60;99.90;;;;;;5028162;28;20045;-79
2021/09/26 05:15:13;;;;;;;17.52;13.25;;;14.60;99.90;;;;;;5033267;28;20032;-79
2021/09/26 05:17:39;;;;;;;15.10;11.38;;;14.70;99.90;;;;;;5013876;28;20065;-79
2021/09/26 05:20:07;;;;;;;14.70;12.15;;;14.70;99.90;;;;;;5050262;28;20393;-79
2021/09/26 05:22:34;;;;;;;17.10;12.38;;;14.70;99.90;;;;;;5013875;28;20053;-79
2021/09/26 05:25:00;;;;;;;16.73;12.48;;;14.70;99.90;;;;;;5025246;28;20381;-79
2021/09/26 05:27:27;;;;;;;16.00;12.07;;;14.80;99.90;;;;;;5029357;28;20049;-79
2021/09/26 05:29:53;;;;;;;17.40;12.00;;;14.80;99.90;;;;;;5027625;28;20045;-79
2021/09/26 05:32:19;;;;;;;17.35;13.07;;;14.80;99.90;;;;;;5017697;28;20037;-79
2021/09/26 05:34:46;;;;;;;17.02;11.25;;;14.90;99.90;;;;;;5017138;28;20037;-79
2021/09/26 05:37:14;;;;;;;14.18;11.07;;;14.90;99.90;;;;;;5029130;28;20080;-79
2021/09/26 05:39:40;;;;;;;15.52;11.38;;;14.90;99.90;;;;;;5030282;28;20479;-79
2021/09/26 05:42:07;;;;;;;15.15;11.63;;;15.00;99.90;;;;;;5017046;28;20068;-79
2021/09/26 05:44:35;;;;;;;16.15;11.73;;;15.00;99.90;;;;;;5028777;28;20331;-80
2021/09/26 05:47:02;;;;;;;14.05;11.07;;;15.00;99.90;;;;;;5034589;28;20037;-79
2021/09/26 05:49:28;;;;;;;15.43;12.45;;;15.10;99.90;;;;;;4995084;28;20064;-78
2021/09/26 05:51:57;;;;;;;16.13;12.88;;;15.10;99.90;;;;;;5034139;28;20052;-79
2021/09/26 05:54:23;;;;;;;16.65;12.40;;;15.10;99.90;;;;;;5020542;28;20037;-79
2021/09/26 05:56:50;;;;;;;15.48;12.23;;;15.20;99.90;;;;;;5013225;28;20064;-79
2021/09/26 05:59:16;;;;;;;15.98;12.20;;;15.20;99.90;;;;;;5031347;28;20042;-79
2021/09/26 06:01:43;;;;;;;12.73;11.13;;;15.20;99.90;;;;;;5021462;28;20048;-79
2021/09/26 06:04:09;;;;;;;15.88;12.23;;;15.30;99.90;;;;;;5032732;28;20029;-78
2021/09/26 06:06:36;;;;;;;14.98;11.73;;;15.30;99.90;;;;;;5033597;28;20037;-78
2021/09/26 06:09:02;;;;;;;16.30;12.68;;;15.30;99.90;;;;;;5032296;28;20043;-78
2021/09/26 06:11:28;;;;;;;13.30;11.30;;;15.30;99.90;;;;;;5012957;28;20040;-79
2021/09/26 06:13:55;;;;;;;17.77;11.90;;;15.30;99.90;;;;;;5011146;28;20052;-79
2021/09/26 06:16:21;;;;;;;19.63;13.55;;;15.30;99.90;;;;;;5015668;28;20040;-78
2021/09/26 06:18:48;;;;;;;14.93;12.35;;;15.30;99.90;;;;;;5006874;28;20053;-79
2021/09/26 06:21:14;;;;;;;15.63;12.55;;;15.40;99.90;;;;;;5028564;28;20058;-79
2021/09/26 06:23:40;;;;;;;15.93;12.35;;;15.40;99.90;;;;;;5029118;28;20044;-79
2021/09/26 06:26:07;;;;;;;13.38;11.43;;;15.40;99.90;;;;;;5015650;28;20068;-81
2021/09/26 06:28:33;;;;;;;17.88;14.23;;;15.50;99.90;;;;;;5032931;28;20033;-79
2021/09/26 06:31:00;;;;;;;15.80;12.25;;;15.50;99.90;;;;;;5018463;28;20091;-83
2021/09/26 06:33:27;;;;;;;13.93;11.30;;;15.60;99.90;;;;;;5014793;28;20045;-82
2021/09/26 06:35:53;;;;;;;14.45;11.90;;;15.60;99.90;;;;;;4998401;28;20052;-81
2021/09/26 06:38:20;;;;;;;17.35;12.35;;;15.70;99.90;;;;;;5014931;28;20049;-81
2021/09/26 06:40:46;;;;;;;14.20;11.65;;;15.70;99.90;;;;;;5036032;28;20033;-81
2021/09/26 06:43:13;;;;;;;14.30;12.65;;;15.70;99.90;;;;;;5019092;28;20028;-83
2021/09/26 06:45:40;;;;;;;17.52;12.75;;;15.70;99.90;;;;;;5016261;28;20044;-83
2021/09/26 06:48:06;;;;;;;15.27;12.70;;;15.80;99.90;;;;;;5028989;28;20059;-79
2021/09/26 06:50:32;;;;;;;13.52;11.65;;;15.80;99.90;;;;;;5014414;28;20052;-84
2021/09/26 06:52:59;;;;;;;15.05;12.50;;;15.90;99.90;;;;;;5010777;28;20042;-83
2021/09/26 06:55:25;;;;;;;15.73;12.10;;;16.00;99.90;;;;;;5032708;28;20037;-84
2021/09/26 06:57:52;;;;;;;13.48;11.88;;;16.00;99.90;;;;;;5046506;28;20033;-83
2021/09/26 07:00:19;;;;;;;15.65;12.85;;;16.10;99.90;;;;;;5029781;28;20041;-82
2021/09/26 07:02:45;;;;;;;16.48;12.55;;;16.20;99.90;;;;;;5028738;28;20504;-85
2021/09/26 07:05:12;;;;;;;14.35;12.85;;;16.30;99.90;;;;;;4999889;28;20037;-84
2021/09/26 07:07:38;;;;;;;15.95;12.57;;;16.40;99.90;;;;;;5024839;28;20033;-83
2021/09/26 07:10:05;;;;;;;14.32;11.32;;;16.40;99.90;;;;;;5014491;28;20053;-85
2021/09/26 07:12:32;;;;;;;14.43;12.23;;;16.50;99.90;;;;;;5031251;28;20072;-83
2021/09/26 07:15:01;;;;;;;14.90;11.98;;;16.60;99.90;;;;;;5012689;28;20036;-83
2021/09/26 07:17:29;;;;;;;14.75;10.90;;;16.60;99.90;;;;;;5025994;28;20038;-86
2021/09/26 07:19:55;;;;;;;14.32;11.85;;;16.70;99.90;;;;;;5000312;28;20515;-85
2021/09/26 07:22:25;;;;;;;14.52;12.82;;;16.80;99.90;;;;;;5000184;28;20591;-86
2021/09/26 07:24:53;;;;;;;13.77;12.15;;;16.80;99.90;;;;;;5025270;28;20041;-85
2021/09/26 07:27:22;;;;;;;16.00;12.50;;;16.90;99.90;;;;;;5029112;28;20037;-83
2021/09/26 07:29:50;;;;;;;13.90;12.27;;;17.00;99.90;;;;;;5026704;28;20040;-84
2021/09/26 07:32:17;;;;;;;15.38;12.10;;;17.10;99.90;;;;;;5014025;28;20488;-83
2021/09/26 07:34:44;;;;;;;12.98;11.30;;;17.10;99.90;;;;;;5010669;28;20045;-84
2021/09/26 07:37:10;;;;;;;13.05;10.77;;;17.20;99.90;;;;;;4994919;28;20559;-86
2021/09/26 07:39:39;;;;;;;13.30;11.38;;;17.10;99.90;;;;;;5027617;28;20034;-84
2021/09/26 07:42:06;;;;;;;15.20;11.75;;;17.10;99.90;;;;;;5012859;28;20056;-85
2021/09/26 07:44:33;;;;;;;15.88;12.23;;;17.10;99.90;;;;;;5014355;28;20505;-82
2021/09/26 07:46:59;;;;;;;14.02;11.07;;;17.10;99.90;;;;;;5027298;28;20053;-83
2021/09/26 07:49:26;;;;;;;13.60;12.18;;;17.10;99.90;;;;;;5012720;28;20041;-83
2021/09/26 07:51:52;;;;;;;14.10;12.10;;;17.20;99.90;;;;;;4998345;28;20049;-83
2021/09/26 07:54:19;;;;;;;13.98;11.60;;;17.30;99.90;;;;;;5030694;28;20048;-83
2021/09/26 07:56:45;;;;;;;16.70;13.27;;;17.30;99.90;;;;;;5001037;28;20049;-83
2021/09/26 07:59:12;;;;;;;17.63;13.00;;;17.40;99.90;;;;;;5029190;28;20033;-83
2021/09/26 08:01:38;;;;;;;12.35;10.85;;;17.60;99.90;;;;;;5022806;28;20057;-82
2021/09/26 08:04:07;;;;;;;14.18;12.07;;;17.70;99.90;;;;;;5019159;28;20548;-83
2021/09/26 08:06:34;;;;;;;14.05;11.25;;;17.80;99.90;;;;;;5036667;28;20049;-85
2021/09/26 08:09:01;;;;;;;12.25;11.05;;;18.00;99.90;;;;;;5022724;28;20416;-81
2021/09/26 08:11:27;;;;;;;12.45;11.20;;;18.10;99.90;;;;;;5040231;28;20029;-81
2021/09/26 08:13:54;;;;;;;11.90;10.73;;;18.20;99.90;;;;;;5003439;28;20052;-84
2021/09/26 08:16:20;;;;;;;13.45;10.93;;;18.40;99.90;;;;;;5005897;28;20380;-82
2021/09/26 08:18:47;;;;;;;12.70;10.88;;;18.50;99.90;;;;;;5021353;28;20037;-82
2021/09/26 08:21:14;;;;;;;12.95;10.57;;;18.70;99.90;;;;;;5036893;28;20384;-82
2021/09/26 08:23:41;;;;;;;11.90;9.52;;;18.80;99.90;;;;;;5003012;28;20531;-82
2021/09/26 08:26:08;;;;;;;10.52;9.43;;;18.90;99.90;;;;;;5037267;28;20034;-83
2021/09/26 08:28:34;;;;;;;11.13;9.90;;;19.10;99.90;;;;;;5034795;28;20044;-82
2021/09/26 08:31:01;;;;;;;11.18;9.43;;;19.30;99.90;;;;;;5016463;28;20415;-83
2021/09/26 08:33:27;;;;;;;10.27;9.18;;;19.40;99.90;;;;;;5015056;28;20547;-83
2021/09/26 08:35:54;;;;;;;10.93;9.05;;;19.40;99.90;;;;;;5037506;28;20135;-82
2021/09/26 08:38:20;;;;;;;11.10;9.48;;;19.50;99.90;;;;;;5016723;28;20044;-83
2021/09/26 08:40:50;;;;;;;12.32;10.60;;;19.60;99.90;;;;;;5022274;28;20475;-81
2021/09/26 08:43:19;;;;;;;10.40;9.30;;;19.70;99.90;;;;;;5017833;28;20045;-82
2021/09/26 08:45:46;;;;;;;12.10;10.07;;;19.80;99.90;;;;;;5020448;28;20051;-82
2021/09/26 08:48:13;;;;;;;11.35;10.25;;;19.90;99.90;;;;;;5031937;28;20037;-82
2021/09/26 08:50:41;;;;;;;11.88;8.70;;;20.00;99.90;;;;;;5022129;28;20496;-81
2021/09/26 08:53:08;;;;;;;10.43;8.77;;;20.10;99.90;;;;;;5036809;28;20624;-82
2021/09/26 08:55:35;;;;;;;11.35;9.93;;;20.20;99.90;;;;;;5004994;28;20053;-83
2021/09/26 08:58:02;;;;;;;11.98;8.15;;;20.30;99.90;;;;;;5030944;28;20373;-86
2021/09/26 09:00:28;;;;;;;10.52;9.30;;;20.40;99.90;;;;;;5017932;28;20064;-81
2021/09/26 09:02:57;;;;;;;10.48;9.38;;;20.50;99.90;;;;;;5017356;28;20050;-82
2021/09/26 09:05:38;;;;;;;9.68;8.77;;;20.60;99.90;;;;;;5000595;28;20507;-83
2021/09/26 09:08:17;;;;;;;11.00;9.90;;;20.70;99.90;;;;;;5000251;28;20048;-83
2021/09/26 09:10:47;;;;;;;7.65;6.95;;;20.70;99.90;;;;;;5013829;28;20041;-85
2021/09/26 09:13:34;;;;;;;11.50;10.25;;;20.80;99.90;;;;;;5018131;28;20040;-84
2021/09/26 09:16:05;;;;;;;11.00;9.73;;;20.80;99.90;;;;;;5047527;28;20811;-84
2021/09/26 09:18:55;;;;;;;10.30;9.30;;;21.00;99.90;;;;;;5031146;28;20388;-85
2021/09/26 09:21:30;;;;;;;9.95;7.78;;;21.10;99.90;;;;;;5018425;28;20045;-85
2021/09/26 09:24:15;;;;;;;8.55;7.65;;;21.20;99.90;;;;;;5028903;28;20060;-82
2021/09/26 09:26:45;;;;;;;11.82;9.85;;;21.30;99.90;;;;;;5018601;28;20558;-85
2021/09/26 09:29:16;;;;;;;11.43;9.88;;;21.40;99.90;;;;;;5046694;28;20026;-85
2021/09/26 09:31:57;;;;;;;12.10;9.20;;;21.60;99.90;;;;;;5033314;28;20044;-80
2021/09/26 09:34:32;;;;;;;10.40;9.40;;;21.70;99.90;;;;;;5027079;28;20057;-82
2021/09/26 09:37:16;;;;;;;8.60;7.53;;;21.90;99.90;;;;;;5026671;28;20036;-81
2021/09/26 09:40:11;;;;;;;11.02;9.60;;;22.00;99.90;;;;;;5012835;28;20512;-83
2021/09/26 09:42:40;;;;;;;11.32;10.23;;;22.10;99.90;;;;;;5012782;28;20041;-83
2021/09/26 09:45:17;;;;;;;11.18;9.90;;;22.20;99.90;;;;;;5032031;28;20041;-84
2021/09/26 09:48:10;;;;;;;9.02;8.18;;;22.40;99.90;;;;;;5014977;28;20026;-84
2021/09/26 09:50:42;;;;;;;11.20;10.10;;;22.50;99.90;;;;;;5026682;28;20057;-87
2021/09/26 09:53:22;;;;;;;10.52;9.43;;;22.60;99.90;;;;;;5016076;28;20041;-81
2021/09/26 09:56:02;;;;;;;12.88;11.48;;;22.60;99.90;;;;;;5010438;28;20400;-84
2021/09/26 09:58:37;;;;;;;10.57;9.57;;;22.70;99.90;;;;;;5026935;28;20436;-83
2021/09/26 10:01:06;;;;;;;14.20;10.95;;;22.50;99.90;;;;;;5028009;28;20041;-83
2021/09/26 10:03:39;;;;;;;12.18;11.02;;;22.50;99.90;;;;;;5016267;28;20488;-85
2021/09/26 10:06:29;;;;;;;11.77;10.68;;;22.60;99.90;;;;;;5025138;28;20060;-83
2021/09/26 10:08:59;;;;;;;11.40;10.30;;;22.70;99.90;;;;;;5007332;28;20037;-86
2021/09/26 10:11:28;;;;;;;11.38;10.25;;;22.90;99.90;;;;;;5027579;28;20044;-84
2021/09/26 10:13:59;;;;;;;12.73;11.52;;;23.20;99.90;;;;;;5031288;28;20044;-84
2021/09/26 10:16:27;;;;;;;9.68;8.73;;;23.50;99.90;;;;;;5009482;28;20052;-85
2021/09/26 10:18:54;;;;;;;10.38;9.27;;;24.00;99.90;;;;;;4992081;28;20075;-84
2021/09/26 10:21:21;;;;;;;10.30;9.20;;;24.40;99.90;;;;;;5009432;28;20376;-83
2021/09/26 10:23:48;;;;;;;9.90;8.93;;;24.90;99.90;;;;;;5013610;28;20045;-82
2021/09/26 10:26:19;;;;;;;10.60;9.60;;;25.40;99.90;;;;;;5013786;28;20042;-82
2021/09/26 10:28:50;;;;;;;10.80;9.40;;;25.80;99.90;;;;;;5027854;28;20033;-85
2021/09/26 10:31:18;;;;;;;12.73;11.43;;;26.20;99.50;;;;;;5029288;28;20053;-85
2021/09/26 10:33:46;;;;;;;11.20;10.15;;;26.50;98.60;;;;;;5029964;28;20661;-83
2021/09/26 10:36:16;;;;;;;9.95;8.63;;;26.70;98.00;;;;;;5046502;28;20446;-85
2021/09/26 10:38:45;;;;;;;8.98;8.07;;;26.80;97.50;;;;;;5026602;28;20040;-82
2021/09/26 10:41:11;;;;;;;8.27;7.53;;;26.80;96.90;;;;;;5027447;28;20041;-82
2021/09/26 10:43:38;;;;;;;9.20;8.02;;;27.10;96.60;;;;;;5010109;28;20721;-89
2021/09/26 10:46:27;;;;;;;10.30;8.98;;;27.30;96.10;;;;;;5011482;28;20049;-82
2021/09/26 10:49:01;;;;;;;8.77;7.97;;;27.40;94.80;;;;;;5007522;28;20069;-82
2021/09/26 10:51:41;;;;;;;11.32;10.32;;;27.30;94.90;;;;;;5048005;28;20040;-81
2021/09/26 10:54:27;;;;;;;9.77;8.43;;;27.00;94.40;;;;;;5013116;28;20119;-82
2021/09/26 10:57:12;;;;;;;10.35;9.35;;;26.90;94.40;;;;;;5014033;28;20041;-82
2021/09/26 10:59:39;;;;;;;9.23;8.32;;;26.60;94.20;;;;;;5031417;28;20504;-82
2021/09/26 11:02:27;;;;;;;10.20;8.40;;;26.40;94.30;;;;;;5009800;28;20072;-81
2021/09/26 11:04:55;;;;;;;7.53;6.75;;;26.40;94.50;;;;;;5013052;28;20387;-82
2021/09/26 11:07:27;;;;;;;8.38;7.50;;;26.60;94.60;;;;;;5026752;28;20037;-83
2021/09/26 11:09:56;;;;;;;8.88;7.75;;;27.10;94.20;;;;;;5042340;28;20021;-81
2021/09/26 11:12:43;;;;;;;8.55;7.63;;;27.70;93.70;;;;;;5044624;28;20044;-82
2021/09/26 11:15:19;;;;;;;7.80;7.13;;;28.30;92.60;;;;;;5028414;28;20052;-82
2021/09/26 11:17:49;;;;;;;9.30;8.60;;;28.80;91.80;;;;;;5013139;28;20040;-82
2021/09/26 11:20:30;;;;;;;8.82;8.05;;;29.00;91.10;;;;;;5016165;28;20049;-82
2021/09/26 11:23:06;;;;;;;10.82;9.73;;;29.30;90.70;;;;;;5025124;28;20493;-82
2021/09/26 11:25:58;;;;;;;8.63;7.72;;;29.60;90.10;;;;;;5029676;28;20080;-83
2021/09/26 11:28:33;;;;;;;7.18;6.57;;;29.70;88.90;;;;;;5025008;28;20508;-84
2021/09/26 11:31:02;;;;;;;7.88;7.15;;;29.50;88.20;;;;;;4996527;28;20495;-84
2021/09/26 11:33:54;;;;;;;7.13;6.47;;;29.50;88.40;;;;;;5021324;28;20056;-85
2021/09/26 11:36:21;;;;;;;7.40;6.68;;;29.70;87.70;;;;;;5030449;28;20037;-83
2021/09/26 11:38:48;;;;;;;7.40;6.72;;;29.90;86.70;;;;;;5014626;28;20042;-81
2021/09/26 11:41:15;;;;;;;8.43;7.63;;;30.20;85.60;;;;;;5035431;28;20041;-81
2021/09/26 11:44:04;;;;;;;6.53;6.03;;;30.20;84.50;;;;;;5030090;28;20397;-81
2021/09/26 11:46:31;;;;;;;7.75;7.07;;;30.10;84.60;;;;;;5030066;28;20048;-82
2021/09/26 11:49:07;;;;;;;6.78;6.20;;;29.80;84.80;;;;;;5030558;28;20041;-85
2021/09/26 11:51:36;;;;;;;7.45;6.80;;;29.90;84.80;;;;;;5017178;28;20045;-87
2021/09/26 11:54:06;;;;;;;6.65;6.15;;;30.10;83.90;;;;;;5015623;28;20049;-85
2021/09/26 11:56:42;;;;;;;6.15;5.55;;;30.10;83.90;;;;;;5025038;28;20045;-84
2021/09/26 11:59:17;;;;;;;7.65;6.95;;;30.10;83.00;;;;;;4997717;28;20144;-85
2021/09/26 12:01:47;;;;;;;8.57;7.88;;;29.60;83.00;;;;;;5031065;28;20048;-85
2021/09/26 12:04:18;;;;;;;6.20;5.60;;;29.10;83.70;;;;;;5018334;28;20056;-85
2021/09/26 12:06:49;;;;;;;;;;;28.70;84.70;;;;;;5031106;28;20446;-85
2021/09/26 12:09:41;;;;;;;8.07;7.38;;;28.30;85.50;;;;;;5014441;28;19919;-85
2021/09/26 12:12:25;;;;;;;8.75;7.75;;;28.20;86.10;;;;;;5043869;28;20045;-85
2021/09/26 12:14:59;;;;;;;6.68;6.18;;;28.30;86.80;;;;;;5036073;28;20422;-85
2021/09/26 12:17:28;;;;;;;7.47;6.78;;;28.80;86.20;;;;;;5013023;28;20507;-84
2021/09/26 12:20:03;;;;;;;7.82;7.18;;;29.00;85.40;;;;;;5036328;28;20029;-84
2021/09/26 12:22:30;;;;;;;7.68;7.07;;;29.20;84.30;;;;;;5033423;28;20056;-84
2021/09/26 12:25:04;;;;;;;7.80;6.97;;;29.10;84.00;;;;;;5035110;28;20045;-84
2021/09/26 12:27:35;;;;;;;7.88;7.18;;;28.80;84.20;;;;;;5028966;28;20145;-84
2021/09/26 12:30:15;;;;;;;8.20;7.50;;;28.60;84.30;;;;;;5028557;28;20053;-84
2021/09/26 12:33:01;;;;;;;8.75;7.28;;;28.30;84.40;;;;;;5030774;28;20037;-84
2021/09/26 12:35:36;;;;;;;7.13;6.43;;;28.00;85.10;;;;;;5016917;28;20041;-84
2021/09/26 12:38:14;;;;;;;8.40;7.60;;;27.70;86.10;;;;;;5013691;28;20046;-85
2021/09/26 12:40:50;;;;;;;8.15;7.45;;;27.40;86.60;;;;;;5033496;28;20052;-84
2021/09/26 12:43:25;;;;;;;8.85;7.57;;;27.20;87.70;;;;;;5028246;28;20053;-84
2021/09/26 12:45:53;;;;;;;10.60;9.60;;;26.90;88.40;;;;;;5026746;28;20049;-84
2021/09/26 12:48:21;;;;;;;9.93;9.02;;;26.70;89.00;;;;;;5027385;28;20045;-84